.
WxDataArchive / Data Records for 2009-10-10
2009-10-09 October 2009 2009-10-11

Data Records for Saturday, 10 October 2009

Time	Temp	Chill	HIndex	Humid	Dewpt	 Wind 	HiWind	WindDir	Rain 	Barom 
-----	----	-----	------	-----	-----	------	------	-------	-----	----- 
00:00	46.4	46.4	46.4	93	44.5	0	1	292	0.00	29.963 
00:05	46.4	46.4	46.4	93	44.5	0	2	292	0.00	29.963 
00:10	46.2	46.2	46.2	93	44.3	0	2	292	0.00	29.963 
00:15	46.2	46.2	46.2	93	44.3	1	2	292	0.00	29.975 
00:20	46.2	46.2	46.2	93	44.3	0	2	292	0.00	29.975 
00:25	46.2	46.2	46.2	92	44.0	0	1	292	0.00	29.975 
00:30	46.1	46.1	46.1	92	43.9	0	1	292	0.00	29.982 
00:35	46.1	46.1	46.1	92	43.9	0	2	292	0.00	29.982 
00:40	46.1	46.1	46.1	92	43.9	1	2	292	0.00	29.982 
00:45	46.1	46.1	46.1	92	43.9	0	2	292	0.00	29.984 
00:50	46.1	46.1	46.1	92	43.9	0	2	292	0.00	29.984 
00:55	46.1	46.1	46.1	92	43.9	0	1	292	0.00	29.984 
01:00	46.0	46.0	46.0	92	43.8	0	1	292	0.00	29.990 
01:05	46.0	46.0	46.0	92	43.8	0	0	---	0.00	29.990 
01:10	46.0	46.0	46.0	92	43.8	0	1	292	0.00	29.990 
01:15	46.0	46.0	46.0	92	43.8	0	1	292	0.00	29.993 
01:20	45.8	45.8	45.8	92	43.6	0	1	292	0.00	29.993 
01:25	45.8	45.8	45.8	92	43.6	0	2	292	0.00	29.993 
01:30	45.8	45.8	45.8	92	43.6	1	3	292	0.00	30.005 
01:35	45.7	45.7	45.7	92	43.5	1	2	292	0.00	30.005 
01:40	45.7	45.7	45.7	91	43.2	0	2	292	0.00	30.005 
01:45	45.5	45.5	45.5	91	43.0	0	1	292	0.00	30.010 
01:50	45.5	45.5	45.5	91	43.0	0	2	292	0.00	30.010 
01:55	45.5	45.5	45.5	91	43.0	0	2	292	0.00	30.010 
02:00	45.4	45.4	45.4	90	42.6	0	2	292	0.00	30.025 
02:05	45.2	45.2	45.2	90	42.4	0	3	292	0.00	30.025 
02:10	45.1	45.1	45.1	90	42.3	0	1	292	0.00	30.025 
02:15	44.9	44.9	44.9	90	42.1	0	1	292	0.00	30.040 
02:20	44.8	44.8	44.8	90	42.0	0	1	292	0.00	30.040 
02:25	44.6	44.6	44.6	91	42.1	0	1	292	0.00	30.040 
02:30	44.6	44.6	44.6	91	42.1	0	1	292	0.00	30.039 
02:35	44.5	44.5	44.5	91	42.0	0	1	292	0.00	30.039 
02:40	44.3	44.3	44.3	91	41.8	0	0	---	0.00	30.039 
02:45	44.2	44.2	44.2	91	41.7	0	1	292	0.00	30.043 
02:50	44.1	44.1	44.1	91	41.6	0	0	---	0.00	30.043 
02:55	43.9	43.9	43.9	92	41.7	0	0	---	0.00	30.043 
03:00	43.8	43.8	43.8	92	41.6	0	0	---	0.00	30.045 
03:05	43.6	43.6	43.6	92	41.4	0	1	292	0.00	30.045 
03:10	43.5	43.5	43.5	92	41.3	0	0	---	0.00	30.045 
03:15	43.3	43.3	43.3	92	41.1	0	0	---	0.00	30.046 
03:20	43.2	43.2	43.2	92	41.0	0	0	---	0.00	30.046 
03:25	43.1	43.1	43.1	93	41.2	0	0	---	0.00	30.046 
03:30	42.9	42.9	42.9	93	41.0	0	0	---	0.00	30.043 
03:35	42.9	42.9	42.9	93	41.0	0	0	---	0.00	30.043 
03:40	42.8	42.8	42.8	93	40.9	0	0	---	0.00	30.043 
03:45	42.8	42.8	42.8	93	40.9	0	0	---	0.00	30.044 
03:50	42.6	42.6	42.6	93	40.7	0	0	---	0.00	30.044 
03:55	42.5	42.5	42.5	93	40.6	0	1	292	0.00	30.044 
04:00	42.3	42.3	42.3	94	40.7	0	0	---	0.00	30.046 
04:05	42.2	42.2	42.2	94	40.6	0	0	---	0.00	30.046 
04:10	42.1	42.1	42.1	94	40.5	0	0	---	0.00	30.046 
04:15	41.9	41.9	41.9	94	40.3	0	0	---	0.00	30.051 
04:20	41.8	41.8	41.8	94	40.2	0	0	---	0.00	30.051 
04:25	41.5	41.5	41.5	94	39.9	0	0	---	0.00	30.051 
04:30	41.2	41.2	41.2	94	39.6	0	0	---	0.00	30.052 
04:35	40.9	40.9	40.9	94	39.3	0	0	---	0.00	30.052 
04:40	40.6	40.6	40.6	94	39.0	0	0	---	0.00	30.052 
04:45	40.5	40.5	40.5	94	38.9	0	0	---	0.00	30.057 
04:50	40.2	40.2	40.2	94	38.6	0	0	---	0.00	30.057 
04:55	39.9	39.9	39.9	94	38.3	0	0	---	0.00	30.057 
05:00	39.8	39.8	39.8	94	38.2	0	0	---	0.00	30.061 
05:05	39.6	39.6	39.6	94	38.0	0	0	---	0.00	30.061 
05:10	39.6	39.6	39.6	94	38.0	0	0	---	0.00	30.061 
05:15	39.5	39.5	39.5	94	37.9	0	0	---	0.00	30.067 
05:20	39.3	39.3	39.3	94	37.7	0	0	---	0.00	30.067 
05:25	39.2	39.2	39.2	94	37.6	0	0	---	0.00	30.067 
05:30	39.2	39.2	39.2	94	37.6	0	0	---	0.00	30.076 
05:35	39.2	39.2	39.2	95	37.9	0	0	---	0.00	30.076 
05:40	39.2	39.2	39.2	95	37.9	0	0	---	0.00	30.076 
05:45	39.2	39.2	39.2	95	37.9	0	0	---	0.00	30.079 
05:50	39.1	39.1	39.1	95	37.8	0	0	---	0.00	30.079 
05:55	38.9	38.9	38.9	95	37.6	0	0	---	0.00	30.079 
06:00	39.1	39.1	39.1	95	37.8	0	0	---	0.00	30.085 
06:05	39.2	39.2	39.2	95	37.9	0	0	---	0.00	30.085 
06:10	39.2	39.2	39.2	95	37.9	0	0	---	0.00	30.085 
06:15	39.2	39.2	39.2	95	37.9	0	0	---	0.00	30.092 
06:20	39.2	39.2	39.2	95	37.9	0	0	---	0.00	30.092 
06:25	39.2	39.2	39.2	95	37.9	0	0	---	0.00	30.092 
06:30	39.1	39.1	39.1	95	37.8	0	0	---	0.00	30.095 
06:35	38.9	38.9	38.9	95	37.6	0	0	---	0.00	30.095 
06:40	38.9	38.9	38.9	95	37.6	0	0	---	0.00	30.095 
06:45	38.8	38.8	38.8	95	37.5	0	0	---	0.00	30.095 
06:50	38.6	38.6	38.6	95	37.3	0	0	---	0.00	30.095 
06:55	38.5	38.5	38.5	95	37.2	0	0	---	0.00	30.095 
07:00	38.3	38.3	38.3	95	37.0	0	0	---	0.00	30.098 
07:05	38.2	38.2	38.2	95	36.9	0	0	---	0.00	30.098 
07:10	38.2	38.2	38.2	95	36.9	0	0	---	0.00	30.098 
07:15	38.2	38.2	38.2	96	37.2	0	0	---	0.00	30.108 
07:20	38.2	38.2	38.2	96	37.2	0	0	---	0.00	30.108 
07:25	38.2	38.2	38.2	96	37.2	0	0	---	0.00	30.108 
07:30	38.2	38.2	38.2	96	37.2	0	0	---	0.00	30.117 
07:35	38.3	38.3	38.3	96	37.3	0	0	---	0.00	30.117 
07:40	38.3	38.3	38.3	96	37.3	0	0	---	0.00	30.117 
07:45	38.2	38.2	38.2	96	37.2	0	0	---	0.00	30.126 
07:50	38.0	38.0	38.0	96	37.0	0	0	---	0.00	30.126 
07:55	37.8	37.8	37.8	96	36.8	0	0	---	0.00	30.126 
08:00	37.6	37.6	37.6	96	36.6	0	0	---	0.00	30.131 
08:05	37.6	37.6	37.6	96	36.6	0	0	---	0.00	30.131 
08:10	37.8	37.8	37.8	96	36.8	0	0	---	0.00	30.131 
08:15	37.9	37.9	37.9	96	36.9	0	0	---	0.00	30.144 
08:20	37.9	37.9	37.9	96	36.9	0	0	---	0.00	30.144 
08:25	38.0	38.0	38.0	96	37.0	0	0	---	0.00	30.144 
08:30	38.0	38.0	38.0	96	37.0	0	0	---	0.00	30.156 
08:35	38.0	38.0	38.0	96	37.0	0	0	---	0.00	30.156 
08:40	38.2	38.2	38.2	96	37.2	0	0	---	0.00	30.156 
08:45	38.3	38.3	38.3	96	37.3	0	0	---	0.00	30.160 
08:50	38.8	38.8	38.8	96	37.8	0	0	---	0.00	30.160 
08:55	39.6	39.6	39.6	96	38.6	0	1	270	0.00	30.160 
09:00	40.2	40.2	40.2	96	39.2	0	0	---	0.00	30.165 
09:05	40.6	40.6	40.6	96	39.5	0	0	---	0.00	30.165 
09:10	41.1	41.1	41.1	97	40.3	0	0	---	0.00	30.165 
09:15	41.6	41.6	41.6	97	40.8	0	1	248	0.00	30.165 
09:20	41.9	41.9	41.9	97	41.1	0	0	---	0.00	30.165 
09:25	42.3	42.3	42.3	97	41.5	0	1	248	0.00	30.165 
09:30	42.6	42.6	42.6	97	41.8	0	1	270	0.00	30.163 
09:35	43.1	43.1	43.1	97	42.3	0	1	270	0.00	30.163 
09:40	43.3	43.3	43.3	97	42.5	0	2	180	0.00	30.163 
09:45	43.8	43.8	43.8	97	43.0	0	0	---	0.00	30.163 
09:50	44.1	44.1	44.1	97	43.3	0	1	112	0.00	30.163 
09:55	44.3	44.3	44.3	97	43.5	0	1	112	0.00	30.163 
10:00	44.6	44.6	44.6	97	43.8	0	1	112	0.00	30.161 
10:05	45.4	45.4	45.4	97	44.6	0	1	112	0.00	30.161 
10:10	46.0	46.0	46.0	97	45.2	0	1	112	0.00	30.161 
10:15	46.2	46.2	46.2	97	45.4	0	1	112	0.00	30.155 
10:20	46.8	46.8	46.8	96	45.7	0	1	112	0.00	30.155 
10:25	47.3	47.3	47.3	96	46.2	0	2	112	0.00	30.155 
10:30	47.7	47.7	47.7	96	46.6	0	1	112	0.00	30.152 
10:35	48.3	48.3	48.3	95	46.9	0	1	112	0.00	30.152 
10:40	48.9	48.9	48.9	94	47.2	0	2	112	0.00	30.152 
10:45	49.2	49.2	49.2	92	47.0	0	2	248	0.00	30.152 
10:50	49.2	49.2	49.2	90	46.4	0	2	248	0.00	30.152 
10:55	49.5	49.5	49.5	89	46.4	1	2	248	0.00	30.152 
11:00	49.8	49.8	49.8	87	46.1	1	3	270	0.00	30.167 
11:05	49.9	49.9	49.9	86	45.9	1	3	270	0.00	30.167 
11:10	49.9	49.9	49.9	85	45.6	1	3	270	0.00	30.167 
11:15	50.4	50.4	50.4	85	46.1	0	2	270	0.00	30.173 
11:20	50.1	50.1	50.1	84	45.5	1	3	270	0.00	30.173 
11:25	49.5	49.5	49.5	83	44.6	1	3	270	0.00	30.173 
11:30	49.5	49.5	49.5	84	44.9	0	1	270	0.00	30.178 
11:35	49.5	49.5	49.5	84	44.9	1	4	270	0.00	30.178 
11:40	49.6	49.6	49.6	85	45.3	1	3	270	0.00	30.178 
11:45	49.8	49.8	49.8	83	44.8	1	3	270	0.00	30.180 
11:50	49.4	49.4	49.4	83	44.5	1	3	270	0.00	30.180 
11:55	49.1	49.1	49.1	84	44.5	1	3	270	0.00	30.180 
12:00	49.6	49.6	49.6	86	45.6	0	2	270	0.00	30.181 
12:05	50.1	50.1	50.1	84	45.5	2	4	270	0.00	30.181 
12:10	49.9	49.9	49.9	82	44.6	2	4	292	0.00	30.181 
12:15	50.1	50.1	50.1	84	45.5	1	4	292	0.00	30.185 
12:20	50.1	50.1	50.1	82	44.8	1	3	315	0.00	30.185 
12:25	49.8	49.8	49.8	81	44.2	2	5	338	0.00	30.185 
12:30	49.6	49.6	49.6	82	44.3	1	3	338	0.00	30.183 
12:35	49.8	49.8	49.8	82	44.5	1	3	315	0.00	30.183 
12:40	49.8	49.8	49.8	82	44.5	1	4	315	0.00	30.183 
12:45	49.5	49.5	49.5	81	43.9	1	4	270	0.00	30.184 
12:50	50.1	50.1	50.1	83	45.1	1	3	315	0.00	30.184 
12:55	50.1	50.1	50.1	79	43.8	2	4	292	0.00	30.184 
13:00	49.8	49.8	49.8	80	43.9	1	4	292	0.00	30.191 
13:05	50.7	50.7	50.7	81	45.1	1	3	292	0.00	30.191 
13:10	51.9	51.9	51.9	79	45.6	1	3	292	0.00	30.191 
13:15	52.5	52.5	52.5	76	45.2	1	3	315	0.00	30.182 
13:20	51.7	51.7	51.7	71	42.6	1	4	315	0.00	30.182 
13:25	51.3	51.3	51.3	71	42.2	1	3	315	0.00	30.182 
13:30	51.6	51.6	51.6	69	41.8	1	3	315	0.00	30.168 
13:35	52.2	52.2	52.2	67	41.6	2	5	270	0.00	30.168 
13:40	52.3	52.3	52.3	65	40.9	1	4	270	0.00	30.168 
13:45	52.0	52.0	52.0	65	40.6	1	3	270	0.00	30.168 
13:50	51.7	51.7	51.7	66	40.7	1	3	315	0.00	30.168 
13:55	51.7	51.7	51.7	69	41.9	1	3	315	0.00	30.168 
14:00	52.5	52.5	52.5	67	41.9	1	3	315	0.00	30.165 
14:05	53.3	53.3	53.3	65	41.8	1	3	248	0.00	30.165 
14:10	54.1	54.1	54.1	62	41.4	2	4	248	0.00	30.165 
14:15	53.9	53.9	53.9	60	40.3	1	4	270	0.00	30.157 
14:20	53.5	53.5	53.5	58	39.1	2	4	292	0.00	30.157 
14:25	53.8	53.8	53.8	58	39.4	1	4	248	0.00	30.157 
14:30	54.1	54.1	54.1	57	39.2	2	4	248	0.00	30.148 
14:35	54.2	54.2	54.2	55	38.4	2	4	270	0.00	30.148 
14:40	54.4	54.4	54.4	55	38.6	1	4	270	0.00	30.148 
14:45	54.5	54.5	54.5	52	37.2	2	4	315	0.00	30.144 
14:50	54.5	54.5	54.5	56	39.1	1	4	292	0.00	30.144 
14:55	54.7	54.7	54.7	52	37.4	1	3	315	0.00	30.144 
15:00	54.8	54.8	54.8	53	38.0	1	3	270	0.00	30.142 
15:05	55.0	55.0	55.0	52	37.7	1	4	248	0.00	30.142 
15:10	55.0	55.0	55.0	54	38.7	1	3	248	0.00	30.142 
15:15	55.1	55.1	55.1	55	39.2	1	4	315	0.00	30.140 
15:20	55.1	55.1	55.1	50	36.8	1	5	292	0.00	30.140 
15:25	55.3	55.3	55.3	49	36.5	2	4	315	0.00	30.140 
15:30	55.3	55.3	55.3	51	37.5	1	5	315	0.00	30.143 
15:35	55.3	55.3	55.3	49	36.5	2	5	270	0.00	30.143 
15:40	55.4	55.4	55.4	50	37.1	1	3	248	0.00	30.143 
15:45	55.9	55.9	55.9	50	37.5	1	4	270	0.00	30.149 
15:50	55.7	55.7	55.7	46	35.2	2	4	315	0.00	30.149 
15:55	55.4	55.4	55.4	47	35.5	1	3	315	0.00	30.149 
16:00	55.6	55.6	55.6	45	34.6	2	5	292	0.00	30.146 
16:05	55.4	55.4	55.4	45	34.4	2	5	270	0.00	30.146 
16:10	55.3	55.3	55.3	46	34.9	2	4	292	0.00	30.146 
16:15	55.3	55.3	55.3	47	35.4	1	5	292	0.00	30.153 
16:20	55.4	55.4	55.4	44	33.9	2	5	270	0.00	30.153 
16:25	55.0	55.0	55.0	45	34.1	1	4	292	0.00	30.153 
16:30	54.8	54.8	54.8	44	33.3	2	5	338	0.00	30.156 
16:35	54.7	54.7	54.7	43	32.6	1	4	270	0.00	30.156 
16:40	54.5	54.5	54.5	41	31.3	1	5	315	0.00	30.156 
16:45	54.4	54.4	54.4	41	31.2	1	4	292	0.00	30.162 
16:50	54.2	54.2	54.2	41	31.0	1	4	292	0.00	30.162 
16:55	54.1	54.1	54.1	43	32.1	1	4	315	0.00	30.162 
17:00	53.8	53.8	53.8	42	31.3	2	5	270	0.00	30.168 
17:05	53.6	53.6	53.6	43	31.7	0	1	315	0.00	30.168 
17:10	53.5	53.5	53.5	43	31.6	1	5	315	0.00	30.168 
17:15	53.2	53.2	53.2	43	31.3	2	4	292	0.00	30.172 
17:20	52.9	52.9	52.9	44	31.6	1	3	315	0.00	30.172 
17:25	52.8	52.8	52.8	43	30.9	1	5	292	0.00	30.172 
17:30	52.6	52.6	52.6	44	31.3	1	4	315	0.00	30.180 
17:35	52.5	52.5	52.5	45	31.8	1	4	315	0.00	30.180 
17:40	52.2	52.2	52.2	44	31.0	0	2	315	0.00	30.180 
17:45	51.9	51.9	51.9	43	30.1	1	5	315	0.00	30.189 
17:50	51.6	51.6	51.6	42	29.3	1	4	315	0.00	30.189 
17:55	51.4	51.4	51.4	46	31.3	2	4	315	0.00	30.189 
18:00	51.0	51.0	51.0	47	31.5	2	5	315	0.00	30.196 
18:05	50.7	50.7	50.7	48	31.7	2	5	270	0.00	30.196 
18:10	50.4	50.4	50.4	50	32.5	0	3	315	0.00	30.196 
18:15	50.1	50.1	50.1	50	32.2	1	4	270	0.00	30.204 
18:20	49.6	49.6	49.6	51	32.2	1	3	292	0.00	30.204 
18:25	49.2	49.2	49.2	51	31.9	1	4	292	0.00	30.204 
18:30	48.9	48.9	48.9	50	31.1	1	3	292	0.00	30.214 
18:35	48.6	48.6	48.6	50	30.8	1	4	270	0.00	30.214 
18:40	48.5	48.5	48.5	50	30.7	1	3	338	0.00	30.214 
18:45	48.2	48.2	48.2	50	30.4	1	4	338	0.00	30.214 
18:50	48.0	48.0	48.0	50	30.3	0	2	338	0.00	30.214 
18:55	47.9	47.9	47.9	50	30.2	0	1	338	0.00	30.214 
19:00	47.7	47.7	47.7	51	30.5	0	3	315	0.00	30.218 
19:05	47.6	47.6	47.6	51	30.4	0	1	315	0.00	30.218 
19:10	47.4	47.4	47.4	50	29.7	0	2	315	0.00	30.218 
19:15	47.3	47.3	47.3	50	29.6	0	1	315	0.00	30.221 
19:20	47.1	47.1	47.1	50	29.4	0	2	315	0.00	30.221 
19:25	47.1	47.1	47.1	51	29.9	0	1	315	0.00	30.221 
19:30	47.0	47.0	47.0	51	29.8	0	1	315	0.00	30.223 
19:35	46.8	46.8	46.8	51	29.6	0	2	315	0.00	30.223 
19:40	46.7	46.7	46.7	52	30.0	0	1	315	0.00	30.223 
19:45	46.7	46.7	46.7	52	30.0	0	1	315	0.00	30.226 
19:50	46.5	46.5	46.5	52	29.8	0	1	315	0.00	30.226 
19:55	46.4	46.4	46.4	53	30.2	0	1	315	0.00	30.226 
20:00	46.2	46.2	46.2	54	30.5	0	0	---	0.00	30.226 
20:05	46.0	46.0	46.0	54	30.3	0	0	---	0.00	30.226 
20:10	45.8	45.8	45.8	54	30.1	0	0	---	0.00	30.226 
20:15	45.5	45.5	45.5	55	30.3	0	0	---	0.00	30.227 
20:20	45.2	45.2	45.2	56	30.4	0	0	---	0.00	30.227 
20:25	44.9	44.9	44.9	58	31.0	0	0	---	0.00	30.227 
20:30	44.6	44.6	44.6	59	31.2	0	0	---	0.00	30.234 
20:35	44.3	44.3	44.3	62	32.1	0	0	---	0.00	30.234 
20:40	44.1	44.1	44.1	63	32.3	0	0	---	0.00	30.234 
20:45	43.8	43.8	43.8	64	32.4	0	0	---	0.00	30.231 
20:50	43.5	43.5	43.5	65	32.5	0	0	---	0.00	30.231 
20:55	43.3	43.3	43.3	66	32.7	0	0	---	0.00	30.231 
21:00	43.2	43.2	43.2	67	33.0	0	0	---	0.00	30.241 
21:05	43.2	43.2	43.2	68	33.4	0	0	---	0.00	30.241 
21:10	43.2	43.2	43.2	68	33.4	0	0	---	0.00	30.241 
21:15	43.3	43.3	43.3	68	33.5	0	0	---	0.00	30.237 
21:20	43.5	43.5	43.5	66	32.9	0	0	---	0.00	30.237 
21:25	43.6	43.6	43.6	65	32.6	0	0	---	0.00	30.237 
21:30	43.8	43.8	43.8	64	32.4	0	0	---	0.00	30.242 
21:35	43.9	43.9	43.9	63	32.1	0	1	315	0.00	30.242 
21:40	44.1	44.1	44.1	63	32.3	0	1	315	0.00	30.242 
21:45	44.2	44.2	44.2	63	32.4	0	0	---	0.00	30.250 
21:50	44.2	44.2	44.2	62	32.0	0	0	---	0.00	30.250 
21:55	44.2	44.2	44.2	62	32.0	0	0	---	0.00	30.250 
22:00	44.2	44.2	44.2	63	32.4	0	0	---	0.00	30.243 
22:05	44.1	44.1	44.1	64	32.7	0	0	---	0.00	30.243 
22:10	43.8	43.8	43.8	65	32.8	0	0	---	0.00	30.243 
22:15	43.2	43.2	43.2	65	32.2	0	0	---	0.00	30.238 
22:20	42.8	42.8	42.8	67	32.6	0	0	---	0.00	30.238 
22:25	42.2	42.2	42.2	69	32.8	0	0	---	0.00	30.238 
22:30	41.8	41.8	41.8	70	32.7	0	0	---	0.00	30.242 
22:35	41.2	41.2	41.2	71	32.5	0	0	---	0.00	30.242 
22:40	40.8	40.8	40.8	74	33.2	0	0	---	0.00	30.242 
22:45	40.3	40.3	40.3	76	33.3	0	0	---	0.00	30.249 
22:50	40.1	40.1	40.1	77	33.5	0	0	---	0.00	30.249 
22:55	39.6	39.6	39.6	78	33.3	0	0	---	0.00	30.249 
23:00	39.5	39.5	39.5	79	33.5	0	0	---	0.00	30.250 
23:05	39.2	39.2	39.2	81	33.9	0	0	---	0.00	30.250 
23:10	39.1	39.1	39.1	81	33.8	0	0	---	0.00	30.250 
23:15	38.8	38.8	38.8	82	33.8	0	0	---	0.00	30.255 
23:20	38.6	38.6	38.6	82	33.6	0	0	---	0.00	30.255 
23:25	38.3	38.3	38.3	81	33.0	0	0	---	0.00	30.255 
23:30	38.2	38.2	38.2	82	33.2	0	0	---	0.00	30.258 
23:35	38.2	38.2	38.2	82	33.2	0	0	---	0.00	30.258 
23:40	38.0	38.0	38.0	83	33.3	0	0	---	0.00	30.258 
23:45	37.9	37.9	37.9	83	33.2	0	0	---	0.00	30.266 
23:50	37.8	37.8	37.8	83	33.1	0	0	---	0.00	30.266 
23:55	37.6	37.6	37.6	83	32.9	0	0	---	0.00	30.266 

CoCoRaHS
IN-AL-39
A2 Web Hosting
Creative Commons License
GoDaddy
search engine by freefind advanced

loaded 2018-11-15 16:24:03 • last modified 2010-11-18 10:43:29
Privacy PolicyDisclaimer
• wx.awcolley.com is powered by PmWiki v.2002016 •
• all content (unless otherwise noted) © 2018 A W Colley